sensor_id;sensor_type;location;lat;lon;timestamp;pressure;altitude;pressure_sealevel;temperature;humidity
60725;BME280;59881;36.722;-4.462;2023-02-13T00:01:14;102324.50;;;12.47;74.07
60725;BME280;59881;36.722;-4.462;2023-02-13T00:03:40;102329.84;;;12.46;73.91
60725;BME280;59881;36.722;-4.462;2023-02-13T00:06:06;102147.44;;;11.38;73.78
60725;BME280;59881;36.722;-4.462;2023-02-13T00:08:32;102085.59;;;10.87;73.95
60725;BME280;59881;36.722;-4.462;2023-02-13T00:10:57;102320.28;;;12.43;74.01
60725;BME280;59881;36.722;-4.462;2023-02-13T00:13:23;102270.78;;;12.10;73.85
60725;BME280;59881;36.722;-4.462;2023-02-13T00:15:59;102340.81;;;12.38;72.81
60725;BME280;59881;36.722;-4.462;2023-02-13T00:18:26;102316.16;;;12.37;72.09
60725;BME280;59881;36.722;-4.462;2023-02-13T00:21:07;102293.31;;;12.17;71.73
60725;BME280;59881;36.722;-4.462;2023-02-13T00:23:33;101682.75;;;8.50;71.31
60725;BME280;59881;36.722;-4.462;2023-02-13T00:26:03;102385.97;;;12.33;71.52
60725;BME280;59881;36.722;-4.462;2023-02-13T00:28:29;102313.88;;;12.30;71.58
60725;BME280;59881;36.722;-4.462;2023-02-13T00:31:12;101798.75;;;9.04;71.78
60725;BME280;59881;36.722;-4.462;2023-02-13T00:33:38;101875.47;;;9.34;72.25
60725;BME280;59881;36.722;-4.462;2023-02-13T00:36:09;102120.81;;;11.05;72.42
60725;BME280;59881;36.722;-4.462;2023-02-13T00:38:37;102162.97;;;11.25;72.41
60725;BME280;59881;36.722;-4.462;2023-02-13T00:41:03;101921.94;;;9.33;71.90
60725;BME280;59881;36.722;-4.462;2023-02-13T00:43:29;102212.63;;;11.55;71.64
60725;BME280;59881;36.722;-4.462;2023-02-13T00:45:55;102412.66;;;12.08;72.19
60725;BME280;59881;36.722;-4.462;2023-02-13T00:48:23;102234.31;;;11.43;72.04
60725;BME280;59881;36.722;-4.462;2023-02-13T00:50:48;101934.06;;;9.38;71.81
60725;BME280;59881;36.722;-4.462;2023-02-13T00:53:15;102301.13;;;12.01;72.07
60725;BME280;59881;36.722;-4.462;2023-02-13T00:55:41;102252.66;;;11.65;72.65
60725;BME280;59881;36.722;-4.462;2023-02-13T00:58:07;102310.28;;;11.94;72.50
60725;BME280;59881;36.722;-4.462;2023-02-13T01:00:32;102434.91;;;11.82;72.46
60725;BME280;59881;36.722;-4.462;2023-02-13T01:02:58;101975.25;;;9.59;72.64
60725;BME280;59881;36.722;-4.462;2023-02-13T01:05:23;102300.66;;;11.73;72.69
60725;BME280;59881;36.722;-4.462;2023-02-13T01:07:49;102208.41;;;9.63;72.55
60725;BME280;59881;36.722;-4.462;2023-02-13T01:10:15;102011.41;;;9.97;72.72
60725;BME280;59881;36.722;-4.462;2023-02-13T01:12:41;102312.50;;;11.64;72.69
60725;BME280;59881;36.722;-4.462;2023-02-13T01:15:06;102317.88;;;11.63;72.58
60725;BME280;59881;36.722;-4.462;2023-02-13T01:17:32;102225.78;;;11.17;72.27
60725;BME280;59881;36.722;-4.462;2023-02-13T01:19:58;102145.25;;;10.69;72.32
60725;BME280;59881;36.722;-4.462;2023-02-13T01:22:23;101956.94;;;9.36;71.91
60725;BME280;59881;36.722;-4.462;2023-02-13T01:24:49;102203.06;;;10.94;72.29
60725;BME280;59881;36.722;-4.462;2023-02-13T01:27:14;101550.41;;;7.04;71.88
60725;BME280;59881;36.722;-4.462;2023-02-13T01:29:40;102303.34;;;11.52;72.51
60725;BME280;59881;36.722;-4.462;2023-02-13T01:32:05;102096.03;;;10.30;72.34
60725;BME280;59881;36.722;-4.462;2023-02-13T01:34:32;102292.94;;;11.49;72.64
60725;BME280;59881;36.722;-4.462;2023-02-13T01:36:58;102294.13;;;11.42;72.58
60725;BME280;59881;36.722;-4.462;2023-02-13T01:39:24;102403.31;;;11.39;73.07
60725;BME280;59881;36.722;-4.462;2023-02-13T01:41:50;102297.69;;;11.41;72.91
60725;BME280;59881;36.722;-4.462;2023-02-13T01:45:15;102303.13;;;11.38;72.70
60725;BME280;59881;36.722;-4.462;2023-02-13T01:50:12;102298.59;;;11.40;72.80
60725;BME280;59881;36.722;-4.462;2023-02-13T01:53:04;102297.31;;;11.30;72.91
60725;BME280;59881;36.722;-4.462;2023-02-13T01:55:31;102220.00;;;10.68;73.09
60725;BME280;59881;36.722;-4.462;2023-02-13T01:58:03;102298.63;;;11.19;73.33
60725;BME280;59881;36.722;-4.462;2023-02-13T02:00:31;102298.03;;;11.13;73.70
60725;BME280;59881;36.722;-4.462;2023-02-13T02:03:01;102085.00;;;9.78;73.62
60725;BME280;59881;36.722;-4.462;2023-02-13T02:05:30;101871.44;;;8.61;73.69
60725;BME280;59881;36.722;-4.462;2023-02-13T02:07:59;102076.00;;;9.83;73.75
60725;BME280;59881;36.722;-4.462;2023-02-13T02:10:26;102124.63;;;10.17;74.13
60725;BME280;59881;36.722;-4.462;2023-02-13T02:13:16;102436.25;;;11.09;73.92
60725;BME280;59881;36.722;-4.462;2023-02-13T02:15:44;102251.03;;;10.82;73.89
60725;BME280;59881;36.722;-4.462;2023-02-13T02:18:20;102283.94;;;10.93;74.23
60725;BME280;59881;36.722;-4.462;2023-02-13T02:32:14;102283.81;;;10.76;74.30
60725;BME280;59881;36.722;-4.462;2023-02-13T02:35:13;102362.94;;;10.74;74.42
60725;BME280;59881;36.722;-4.462;2023-02-13T02:40:56;102160.16;;;9.85;74.18
60725;BME280;59881;36.722;-4.462;2023-02-13T02:46:33;102294.28;;;10.55;74.78
60725;BME280;59881;36.722;-4.462;2023-02-13T02:49:06;102290.69;;;10.14;74.79
60725;BME280;59881;36.722;-4.462;2023-02-13T02:52:38;102165.75;;;9.77;74.71
60725;BME280;59881;36.722;-4.462;2023-02-13T02:55:55;102300.56;;;10.53;74.55
60725;BME280;59881;36.722;-4.462;2023-02-13T02:58:10;102240.44;;;10.19;74.73
60725;BME280;59881;36.722;-4.462;2023-02-13T03:00:56;101952.25;;;8.05;74.07
60725;BME280;59881;36.722;-4.462;2023-02-13T03:03:43;102292.03;;;10.46;74.26
60725;BME280;59881;36.722;-4.462;2023-02-13T03:06:36;102395.78;;;10.44;74.03
60725;BME280;59881;36.722;-4.462;2023-02-13T03:09:09;101842.53;;;7.18;74.00
60725;BME280;59881;36.722;-4.462;2023-02-13T03:11:55;101836.75;;;7.58;73.73
60725;BME280;59881;36.722;-4.462;2023-02-13T03:14:41;102288.06;;;10.36;74.22
60725;BME280;59881;36.722;-4.462;2023-02-13T03:17:10;101540.44;;;5.92;73.69
60725;BME280;59881;36.722;-4.462;2023-02-13T03:25:58;102284.75;;;10.31;73.94
60725;BME280;59881;36.722;-4.462;2023-02-13T03:29:23;102287.50;;;10.28;73.43
60725;BME280;59881;36.722;-4.462;2023-02-13T03:32:02;102289.38;;;10.24;73.60
60725;BME280;59881;36.722;-4.462;2023-02-13T03:34:35;102283.25;;;10.24;73.48
60725;BME280;59881;36.722;-4.462;2023-02-13T03:37:30;102284.09;;;10.24;73.63
60725;BME280;59881;36.722;-4.462;2023-02-13T03:40:42;101912.44;;;7.44;73.27
60725;BME280;59881;36.722;-4.462;2023-02-13T03:43:34;102010.44;;;7.93;73.52
60725;BME280;59881;36.722;-4.462;2023-02-13T03:46:02;102191.09;;;9.56;73.38
60725;BME280;59881;36.722;-4.462;2023-02-13T03:48:31;102329.56;;;10.07;73.55
60725;BME280;59881;36.722;-4.462;2023-02-13T03:51:36;101945.84;;;7.89;73.66
60725;BME280;59881;36.722;-4.462;2023-02-13T03:54:18;102292.66;;;9.85;73.56
60725;BME280;59881;36.722;-4.462;2023-02-13T03:56:46;102259.94;;;9.45;74.04
60725;BME280;59881;36.722;-4.462;2023-02-13T03:59:34;101423.34;;;4.37;73.38
60725;BME280;59881;36.722;-4.462;2023-02-13T04:02:11;102314.38;;;9.67;74.05
60725;BME280;59881;36.722;-4.462;2023-02-13T04:05:23;101813.88;;;6.60;74.18
60725;BME280;59881;36.722;-4.462;2023-02-13T04:07:50;102011.94;;;7.20;74.50
60725;BME280;59881;36.722;-4.462;2023-02-13T04:10:16;102198.91;;;8.87;74.79
60725;BME280;59881;36.722;-4.462;2023-02-13T04:18:14;102296.59;;;9.00;75.89
60725;BME280;59881;36.722;-4.462;2023-02-13T04:20:42;101469.66;;;4.29;75.40
60725;BME280;59881;36.722;-4.462;2023-02-13T04:23:09;102222.56;;;8.87;75.96
60725;BME280;59881;36.722;-4.462;2023-02-13T04:25:38;102250.13;;;9.00;76.03
60725;BME280;59881;36.722;-4.462;2023-02-13T04:28:04;102155.06;;;8.37;76.26
60725;BME280;59881;36.722;-4.462;2023-02-13T04:30:31;101744.75;;;5.81;76.14
60725;BME280;59881;36.722;-4.462;2023-02-13T04:32:56;101875.31;;;6.48;76.25
60725;BME280;59881;36.722;-4.462;2023-02-13T04:35:22;101984.00;;;7.19;76.66
60725;BME280;59881;36.722;-4.462;2023-02-13T04:37:47;101865.84;;;6.44;76.39
60725;BME280;59881;36.722;-4.462;2023-02-13T04:40:13;101884.81;;;6.52;76.90
60725;BME280;59881;36.722;-4.462;2023-02-13T04:42:38;102313.78;;;9.10;76.97
60725;BME280;59881;36.722;-4.462;2023-02-13T04:45:04;102151.69;;;8.07;77.51
60725;BME280;59881;36.722;-4.462;2023-02-13T04:47:30;101543.09;;;4.13;77.20
60725;BME280;59881;36.722;-4.462;2023-02-13T04:49:55;101426.00;;;3.71;77.21
60725;BME280;59881;36.722;-4.462;2023-02-13T04:52:21;102286.34;;;8.65;78.08
60725;BME280;59881;36.722;-4.462;2023-02-13T04:54:47;101768.31;;;5.79;78.01
60725;BME280;59881;36.722;-4.462;2023-02-13T04:57:12;101770.75;;;5.86;78.22
60725;BME280;59881;36.722;-4.462;2023-02-13T04:59:38;101877.72;;;6.56;78.54
60725;BME280;59881;36.722;-4.462;2023-02-13T05:02:03;102306.63;;;9.14;78.87
60725;BME280;59881;36.722;-4.462;2023-02-13T05:04:29;102218.84;;;8.67;79.02
60725;BME280;59881;36.722;-4.462;2023-02-13T05:06:54;102396.72;;;9.19;79.11
60725;BME280;59881;36.722;-4.462;2023-02-13T05:09:20;102213.03;;;8.59;78.64
60725;BME280;59881;36.722;-4.462;2023-02-13T05:11:45;102142.16;;;8.04;78.68
60725;BME280;59881;36.722;-4.462;2023-02-13T05:14:11;102360.78;;;9.19;78.83
60725;BME280;59881;36.722;-4.462;2023-02-13T05:16:37;102302.13;;;9.17;78.62
60725;BME280;59881;36.722;-4.462;2023-02-13T05:19:02;102140.81;;;8.19;78.71
60725;BME280;59881;36.722;-4.462;2023-02-13T05:21:28;101767.91;;;5.95;78.59
60725;BME280;59881;36.722;-4.462;2023-02-13T05:24:12;102267.84;;;8.95;79.01
60725;BME280;59881;36.722;-4.462;2023-02-13T05:26:38;102305.75;;;9.15;79.36
60725;BME280;59881;36.722;-4.462;2023-02-13T05:29:03;102008.69;;;7.12;78.87
60725;BME280;59881;36.722;-4.462;2023-02-13T05:31:52;102305.13;;;9.06;79.04
60725;BME280;59881;36.722;-4.462;2023-02-13T05:34:19;102146.47;;;8.05;79.08
60725;BME280;59881;36.722;-4.462;2023-02-13T05:36:45;102316.06;;;8.94;78.90
60725;BME280;59881;36.722;-4.462;2023-02-13T05:39:11;101791.16;;;5.74;78.76
60725;BME280;59881;36.722;-4.462;2023-02-13T05:41:37;102312.03;;;8.84;79.45
60725;BME280;59881;36.722;-4.462;2023-02-13T05:44:02;102319.16;;;8.80;79.39
60725;BME280;59881;36.722;-4.462;2023-02-13T05:46:28;101921.84;;;6.40;79.20
60725;BME280;59881;36.722;-4.462;2023-02-13T05:48:53;102323.56;;;8.80;79.89
60725;BME280;59881;36.722;-4.462;2023-02-13T05:51:19;102326.19;;;8.80;80.08
60725;BME280;59881;36.722;-4.462;2023-02-13T05:53:44;101844.06;;;5.18;79.69
60725;BME280;59881;36.722;-4.462;2023-02-13T05:56:10;101663.88;;;4.84;79.94
60725;BME280;59881;36.722;-4.462;2023-02-13T05:58:36;100854.44;;;-0.48;79.46
60725;BME280;59881;36.722;-4.462;2023-02-13T06:01:01;102317.59;;;8.75;80.59
60725;BME280;59881;36.722;-4.462;2023-02-13T06:03:29;102316.84;;;8.71;80.72
60725;BME280;59881;36.722;-4.462;2023-02-13T06:05:55;102123.63;;;7.54;80.84
60725;BME280;59881;36.722;-4.462;2023-02-13T06:08:22;101699.03;;;5.04;81.04
60725;BME280;59881;36.722;-4.462;2023-02-13T06:10:48;101526.22;;;3.94;80.87
60725;BME280;59881;36.722;-4.462;2023-02-13T06:13:13;102219.78;;;8.12;81.17
60725;BME280;59881;36.722;-4.462;2023-02-13T06:15:39;102318.53;;;8.72;81.32
60725;BME280;59881;36.722;-4.462;2023-02-13T06:18:05;102161.59;;;7.71;81.48
60725;BME280;59881;36.722;-4.462;2023-02-13T06:20:30;102090.19;;;7.33;81.34
60725;BME280;59881;36.722;-4.462;2023-02-13T06:22:56;101623.72;;;4.57;81.13
60725;BME280;59881;36.722;-4.462;2023-02-13T06:25:21;102420.28;;;8.68;81.53
60725;BME280;59881;36.722;-4.462;2023-02-13T06:27:47;101851.84;;;5.20;81.53
60725;BME280;59881;36.722;-4.462;2023-02-13T06:30:13;102427.19;;;8.71;82.23
60725;BME280;59881;36.722;-4.462;2023-02-13T06:32:39;102330.00;;;8.69;82.23
60725;BME280;59881;36.722;-4.462;2023-02-13T06:35:05;102098.25;;;7.27;82.00
60725;BME280;59881;36.722;-4.462;2023-02-13T06:37:31;102347.66;;;8.66;82.14
60725;BME280;59881;36.722;-4.462;2023-02-13T06:39:56;102331.00;;;8.65;82.37
60725;BME280;59881;36.722;-4.462;2023-02-13T06:42:22;102323.94;;;8.67;82.43
60725;BME280;59881;36.722;-4.462;2023-02-13T06:44:47;102322.25;;;8.66;82.55
60725;BME280;59881;36.722;-4.462;2023-02-13T06:47:13;102337.72;;;8.47;82.39
60725;BME280;59881;36.722;-4.462;2023-02-13T06:49:38;102263.97;;;8.25;82.50
60725;BME280;59881;36.722;-4.462;2023-02-13T06:52:04;101910.97;;;5.24;82.38
60725;BME280;59881;36.722;-4.462;2023-02-13T06:54:29;101402.19;;;2.81;82.10
60725;BME280;59881;36.722;-4.462;2023-02-13T06:56:55;101873.34;;;5.97;82.74
60725;BME280;59881;36.722;-4.462;2023-02-13T06:59:20;102503.34;;;8.73;82.83
60725;BME280;59881;36.722;-4.462;2023-02-13T07:01:46;102336.06;;;8.72;82.45
60725;BME280;59881;36.722;-4.462;2023-02-13T07:04:11;102209.88;;;7.93;82.58
60725;BME280;59881;36.722;-4.462;2023-02-13T07:06:37;102085.38;;;7.19;82.44
60725;BME280;59881;36.722;-4.462;2023-02-13T07:09:03;102346.63;;;8.70;82.54
60725;BME280;59881;36.722;-4.462;2023-02-13T07:11:29;102422.72;;;8.75;82.62
60725;BME280;59881;36.722;-4.462;2023-02-13T07:13:55;102346.06;;;8.88;83.21
60725;BME280;59881;36.722;-4.462;2023-02-13T07:16:21;102295.69;;;8.47;82.96
60725;BME280;59881;36.722;-4.462;2023-02-13T07:18:46;102354.38;;;9.28;82.88
60725;BME280;59881;36.722;-4.462;2023-02-13T07:21:12;102159.88;;;8.24;82.15
60725;BME280;59881;36.722;-4.462;2023-02-13T07:23:37;102306.47;;;9.43;81.96
60725;BME280;59881;36.722;-4.462;2023-02-13T07:26:03;102334.66;;;10.12;81.57
60725;BME280;59881;36.722;-4.462;2023-02-13T07:28:29;102351.09;;;10.85;80.42
60725;BME280;59881;36.722;-4.462;2023-02-13T07:30:55;102352.75;;;11.49;78.82
60725;BME280;59881;36.722;-4.462;2023-02-13T07:33:21;102298.38;;;11.84;76.38
60725;BME280;59881;36.722;-4.462;2023-02-13T07:35:48;101757.00;;;9.37;73.33
60725;BME280;59881;36.722;-4.462;2023-02-13T07:38:14;102348.50;;;13.66;70.44
60725;BME280;59881;36.722;-4.462;2023-02-13T07:40:40;102311.44;;;14.29;66.96
60725;BME280;59881;36.722;-4.462;2023-02-13T07:43:06;102255.63;;;14.33;63.42
60725;BME280;59881;36.722;-4.462;2023-02-13T07:45:31;102298.25;;;15.78;60.03
60725;BME280;59881;36.722;-4.462;2023-02-13T07:47:57;102155.75;;;15.77;57.15
60725;BME280;59881;36.722;-4.462;2023-02-13T07:50:24;102320.28;;;17.54;54.46
60725;BME280;59881;36.722;-4.462;2023-02-13T07:52:54;102034.41;;;16.54;51.93
60725;BME280;59881;36.722;-4.462;2023-02-13T07:55:20;102316.91;;;18.87;49.78
60725;BME280;59881;36.722;-4.462;2023-02-13T07:57:45;101547.22;;;14.67;47.76
60725;BME280;59881;36.722;-4.462;2023-02-13T08:00:11;101777.09;;;16.80;46.36
60725;BME280;59881;36.722;-4.462;2023-02-13T08:02:37;101896.47;;;18.25;44.55
60725;BME280;59881;36.722;-4.462;2023-02-13T08:05:03;101992.84;;;19.52;42.92
60725;BME280;59881;36.722;-4.462;2023-02-13T08:07:29;102319.13;;;22.16;41.25
60725;BME280;59881;36.722;-4.462;2023-02-13T08:09:55;102257.41;;;22.45;39.66
60725;BME280;59881;36.722;-4.462;2023-02-13T08:12:40;102294.66;;;23.26;38.24
60725;BME280;59881;36.722;-4.462;2023-02-13T08:15:08;102320.63;;;24.10;37.03
60725;BME280;59881;36.722;-4.462;2023-02-13T08:17:35;102003.84;;;22.85;35.71
60725;BME280;59881;36.722;-4.462;2023-02-13T08:20:01;102318.47;;;25.29;34.59
60725;BME280;59881;36.722;-4.462;2023-02-13T08:22:26;102272.69;;;25.46;34.12
60725;BME280;59881;36.722;-4.462;2023-02-13T08:24:52;102311.53;;;25.95;33.56
60725;BME280;59881;36.722;-4.462;2023-02-13T08:27:17;102336.06;;;25.76;32.84
60725;BME280;59881;36.722;-4.462;2023-02-13T08:29:43;101993.00;;;24.10;32.48
60725;BME280;59881;36.722;-4.462;2023-02-13T08:32:08;102314.16;;;26.46;31.97
60725;BME280;59881;36.722;-4.462;2023-02-13T08:34:34;102335.63;;;27.77;30.52
60725;BME280;59881;36.722;-4.462;2023-02-13T08:37:01;102380.19;;;28.37;29.89
60725;BME280;59881;36.722;-4.462;2023-02-13T08:39:26;102346.19;;;28.58;28.16
60725;BME280;59881;36.722;-4.462;2023-02-13T08:41:52;102359.63;;;25.66;31.47
60725;BME280;59881;36.722;-4.462;2023-02-13T08:44:18;102236.16;;;22.90;34.41
60725;BME280;59881;36.722;-4.462;2023-02-13T08:46:43;102112.78;;;21.83;35.07
60725;BME280;59881;36.722;-4.462;2023-02-13T08:49:09;102372.84;;;24.45;35.05
60725;BME280;59881;36.722;-4.462;2023-02-13T08:51:34;102382.09;;;24.14;34.12
60725;BME280;59881;36.722;-4.462;2023-02-13T08:54:00;102454.09;;;26.26;32.46
60725;BME280;59881;36.722;-4.462;2023-02-13T08:56:25;102019.00;;;26.28;29.26
60725;BME280;59881;36.722;-4.462;2023-02-13T08:58:51;102369.66;;;30.01;26.99
60725;BME280;59881;36.722;-4.462;2023-02-13T09:01:17;102373.69;;;30.63;26.26
60725;BME280;59881;36.722;-4.462;2023-02-13T09:03:43;102385.69;;;28.98;27.30
60725;BME280;59881;36.722;-4.462;2023-02-13T09:06:08;102380.19;;;26.52;29.94
60725;BME280;59881;36.722;-4.462;2023-02-13T09:08:34;102392.53;;;28.40;28.96
60725;BME280;59881;36.722;-4.462;2023-02-13T09:11:02;102378.88;;;29.70;26.65
60725;BME280;59881;36.722;-4.462;2023-02-13T09:13:29;102352.28;;;30.31;25.73
60725;BME280;59881;36.722;-4.462;2023-02-13T09:15:59;102394.13;;;28.80;26.98
60725;BME280;59881;36.722;-4.462;2023-02-13T09:18:26;102390.19;;;28.05;28.24
60725;BME280;59881;36.722;-4.462;2023-02-13T09:21:08;101851.88;;;23.26;30.06
60725;BME280;59881;36.722;-4.462;2023-02-13T09:23:37;102404.16;;;24.99;32.46
60725;BME280;59881;36.722;-4.462;2023-02-13T09:26:06;102409.78;;;25.06;32.87
60725;BME280;59881;36.722;-4.462;2023-02-13T09:28:33;102400.31;;;27.64;30.46
60725;BME280;59881;36.722;-4.462;2023-02-13T09:30:59;102394.13;;;27.39;29.92
60725;BME280;59881;36.722;-4.462;2023-02-13T09:33:28;102392.44;;;26.89;30.87
60725;BME280;59881;36.722;-4.462;2023-02-13T09:35:54;102338.16;;;28.87;28.25
60725;BME280;59881;36.722;-4.462;2023-02-13T09:38:19;102366.94;;;27.72;27.95
60725;BME280;59881;36.722;-4.462;2023-02-13T09:40:59;102376.41;;;28.15;29.29
60725;BME280;59881;36.722;-4.462;2023-02-13T09:44:03;102279.59;;;27.78;27.28
60725;BME280;59881;36.722;-4.462;2023-02-13T09:46:37;102394.44;;;27.28;28.55
60725;BME280;59881;36.722;-4.462;2023-02-13T09:49:14;102387.84;;;29.03;27.27
60725;BME280;59881;36.722;-4.462;2023-02-13T09:51:43;102393.59;;;28.31;27.30
60725;BME280;59881;36.722;-4.462;2023-02-13T09:54:14;102364.47;;;26.39;30.36
60725;BME280;59881;36.722;-4.462;2023-02-13T09:57:00;102343.38;;;26.42;29.62
60725;BME280;59881;36.722;-4.462;2023-02-13T10:00:25;102402.50;;;25.43;31.19
60725;BME280;59881;36.722;-4.462;2023-02-13T10:05:51;102420.44;;;23.42;35.10
60725;BME280;59881;36.722;-4.462;2023-02-13T10:08:33;102419.19;;;24.21;33.86
60725;BME280;59881;36.722;-4.462;2023-02-13T10:16:49;102384.72;;;28.14;27.53
60725;BME280;59881;36.722;-4.462;2023-02-13T10:19:35;102417.16;;;28.84;27.92
60725;BME280;59881;36.722;-4.462;2023-02-13T10:22:28;102410.88;;;27.98;28.29
60725;BME280;59881;36.722;-4.462;2023-02-13T10:25:03;102430.78;;;26.76;29.49
60725;BME280;59881;36.722;-4.462;2023-02-13T10:27:39;102418.16;;;30.34;25.56
60725;BME280;59881;36.722;-4.462;2023-02-13T10:30:24;102106.00;;;31.33;22.53
60725;BME280;59881;36.722;-4.462;2023-02-13T10:33:22;102418.56;;;36.51;19.74
60725;BME280;59881;36.722;-4.462;2023-02-13T10:38:39;102360.97;;;37.57;17.36
60725;BME280;59881;36.722;-4.462;2023-02-13T10:55:48;102427.66;;;25.95;29.84
60725;BME280;59881;36.722;-4.462;2023-02-13T11:01:19;102367.66;;;25.23;31.13
60725;BME280;59881;36.722;-4.462;2023-02-13T11:04:11;102426.94;;;28.71;27.12
60725;BME280;59881;36.722;-4.462;2023-02-13T11:06:54;102411.97;;;29.36;25.66
60725;BME280;59881;36.722;-4.462;2023-02-13T11:09:20;102362.84;;;26.87;28.33
60725;BME280;59881;36.722;-4.462;2023-02-13T11:11:45;102416.63;;;24.47;32.19
60725;BME280;59881;36.722;-4.462;2023-02-13T11:14:37;102432.84;;;22.65;35.29
60725;BME280;59881;36.722;-4.462;2023-02-13T11:17:18;102513.28;;;21.09;38.22
60725;BME280;59881;36.722;-4.462;2023-02-13T11:19:52;102422.47;;;20.63;39.54
60725;BME280;59881;36.722;-4.462;2023-02-13T11:22:33;102417.97;;;20.52;40.04
60725;BME280;59881;36.722;-4.462;2023-02-13T11:25:16;102393.19;;;20.27;40.15
60725;BME280;59881;36.722;-4.462;2023-02-13T11:27:43;102192.75;;;18.57;41.33
60725;BME280;59881;36.722;-4.462;2023-02-13T11:30:37;102414.22;;;19.64;41.90
60725;BME280;59881;36.722;-4.462;2023-02-13T11:33:26;102222.84;;;18.24;42.84
60725;BME280;59881;36.722;-4.462;2023-02-13T11:36:10;101902.56;;;16.13;43.46
60725;BME280;59881;36.722;-4.462;2023-02-13T11:38:38;102417.97;;;18.43;44.80
60725;BME280;59881;36.722;-4.462;2023-02-13T11:41:14;102372.81;;;17.77;46.09
60725;BME280;59881;36.722;-4.462;2023-02-13T11:46:23;102393.84;;;17.82;46.80
60725;BME280;59881;36.722;-4.462;2023-02-13T11:49:06;102364.63;;;17.55;46.92
60725;BME280;59881;36.722;-4.462;2023-02-13T11:51:44;102386.28;;;17.63;47.60
60725;BME280;59881;36.722;-4.462;2023-02-13T11:57:22;102390.75;;;17.50;48.29
60725;BME280;59881;36.722;-4.462;2023-02-13T11:59:50;102371.13;;;17.38;48.31
60725;BME280;59881;36.722;-4.462;2023-02-13T12:02:20;102377.19;;;17.27;48.80
60725;BME280;59881;36.722;-4.462;2023-02-13T12:04:49;102380.34;;;17.07;49.10
60725;BME280;59881;36.722;-4.462;2023-02-13T12:09:52;102385.59;;;17.21;49.25
60725;BME280;59881;36.722;-4.462;2023-02-13T12:13:11;102371.66;;;17.43;48.66
60725;BME280;59881;36.722;-4.462;2023-02-13T12:15:29;102314.53;;;17.34;48.23
60725;BME280;59881;36.722;-4.462;2023-02-13T12:20:47;102331.56;;;17.57;47.83
60725;BME280;59881;36.722;-4.462;2023-02-13T12:28:37;102372.63;;;17.55;48.64
60725;BME280;59881;36.722;-4.462;2023-02-13T12:34:23;102375.63;;;16.98;50.06
60725;BME280;59881;36.722;-4.462;2023-02-13T12:37:40;102368.88;;;16.65;51.19
60725;BME280;59881;36.722;-4.462;2023-02-13T12:43:19;102361.22;;;16.60;51.84
60725;BME280;59881;36.722;-4.462;2023-02-13T12:54:47;102349.34;;;16.24;53.10
60725;BME280;59881;36.722;-4.462;2023-02-13T13:05:41;102338.09;;;16.21;53.86
60725;BME280;59881;36.722;-4.462;2023-02-13T13:10:50;102344.25;;;16.21;53.38
60725;BME280;59881;36.722;-4.462;2023-02-13T13:13:45;102313.09;;;16.23;53.96
60725;BME280;59881;36.722;-4.462;2023-02-13T13:16:47;102299.78;;;16.50;53.85
60725;BME280;59881;36.722;-4.462;2023-02-13T13:22:03;102291.91;;;16.49;54.06
60725;BME280;59881;36.722;-4.462;2023-02-13T13:27:16;102312.13;;;16.24;56.97
60725;BME280;59881;36.722;-4.462;2023-02-13T13:29:45;102307.03;;;16.07;58.89
60725;BME280;59881;36.722;-4.462;2023-02-13T13:32:16;102224.84;;;15.48;59.47
60725;BME280;59881;36.722;-4.462;2023-02-13T13:34:44;102210.03;;;15.29;60.25
60725;BME280;59881;36.722;-4.462;2023-02-13T13:37:36;102275.19;;;15.49;61.65
60725;BME280;59881;36.722;-4.462;2023-02-13T13:40:32;102301.19;;;15.44;61.95
60725;BME280;59881;36.722;-4.462;2023-02-13T13:43:04;102093.72;;;14.36;62.08
60725;BME280;59881;36.722;-4.462;2023-02-13T13:45:41;102245.59;;;15.56;62.64
60725;BME280;59881;36.722;-4.462;2023-02-13T13:48:35;102255.28;;;15.71;62.14
60725;BME280;59881;36.722;-4.462;2023-02-13T13:51:09;102160.94;;;15.22;61.70
60725;BME280;59881;36.722;-4.462;2023-02-13T13:56:22;102116.81;;;14.93;61.89
60725;BME280;59881;36.722;-4.462;2023-02-13T13:58:47;102231.28;;;14.86;61.82
60725;BME280;59881;36.722;-4.462;2023-02-13T14:06:27;101683.78;;;11.89;61.71
60725;BME280;59881;36.722;-4.462;2023-02-13T14:11:54;101415.03;;;10.07;61.38
60725;BME280;59881;36.722;-4.462;2023-02-13T14:16:53;102227.22;;;15.52;60.99
60725;BME280;59881;36.722;-4.462;2023-02-13T14:21:52;101699.19;;;12.43;61.37
60725;BME280;59881;36.722;-4.462;2023-02-13T14:24:19;102091.69;;;14.69;61.97
60725;BME280;59881;36.722;-4.462;2023-02-13T14:26:52;101975.13;;;13.95;61.98
60725;BME280;59881;36.722;-4.462;2023-02-13T14:29:31;102203.59;;;15.48;62.14
60725;BME280;59881;36.722;-4.462;2023-02-13T14:32:07;101873.97;;;12.21;62.46
60725;BME280;59881;36.722;-4.462;2023-02-13T14:34:39;101937.09;;;13.81;61.97
60725;BME280;59881;36.722;-4.462;2023-02-13T14:39:32;102211.75;;;15.45;62.71
60725;BME280;59881;36.722;-4.462;2023-02-13T14:42:21;102210.91;;;15.44;63.23
60725;BME280;59881;36.722;-4.462;2023-02-13T14:44:55;102183.50;;;15.44;63.41
60725;BME280;59881;36.722;-4.462;2023-02-13T14:49:48;102005.38;;;14.35;63.17
60725;BME280;59881;36.722;-4.462;2023-02-13T14:52:21;101751.53;;;12.82;62.78
60725;BME280;59881;36.722;-4.462;2023-02-13T14:54:58;102031.59;;;14.54;62.98
60725;BME280;59881;36.722;-4.462;2023-02-13T14:57:27;102189.19;;;15.52;63.38
60725;BME280;59881;36.722;-4.462;2023-02-13T14:59:57;102358.88;;;15.57;63.06
60725;BME280;59881;36.722;-4.462;2023-02-13T15:02:31;101670.31;;;12.40;62.63
60725;BME280;59881;36.722;-4.462;2023-02-13T15:05:17;102191.16;;;15.48;63.39
60725;BME280;59881;36.722;-4.462;2023-02-13T15:07:58;102023.94;;;14.49;62.90
60725;BME280;59881;36.722;-4.462;2023-02-13T15:10:59;102008.88;;;14.36;63.08
60725;BME280;59881;36.722;-4.462;2023-02-13T15:13:35;102232.94;;;15.32;63.61
60725;BME280;59881;36.722;-4.462;2023-02-13T15:16:07;101870.22;;;12.57;63.82
60725;BME280;59881;36.722;-4.462;2023-02-13T15:18:44;102169.38;;;15.29;64.15